Time;durP1;ratioP1;P1;durP2;ratioP2;P2;SDS_P1;SDS_P2;PMS_P1;PMS_P2;Temp;Humidity;BMP_temperature;BMP_pressure;BME280_temperature;BME280_humidity;BME280_pressure;Samples;Min_cycle;Max_cycle;Signal;HPM_P1;HPM_P2
2024/04/02 00:01:35;;;;;;;13.48;3.15;;;;;;;21.56;23.58;94254.41;5027068;28;20411;-78
2024/04/02 00:04:11;;;;;;;16.05;2.80;;;;;;;21.54;23.64;94234.63;5026275;28;20120;-78
2024/04/02 00:06:37;;;;;;;17.08;3.33;;;;;;;21.51;24.08;94251.72;5025209;28;20063;-77
2024/04/02 00:09:03;;;;;;;17.95;3.45;;;;;;;21.43;24.01;94237.53;5026358;28;20479;-78
2024/04/02 00:11:30;;;;;;;22.83;3.90;;;;;;;21.35;24.15;94242.22;5025459;28;20514;-78
2024/04/02 00:13:55;;;;;;;20.13;3.50;;;;;;;21.26;23.96;94232.09;5010074;28;20049;-78
2024/04/02 00:16:21;;;;;;;19.92;3.80;;;;;;;21.25;24.78;94232.63;5026945;28;20510;-77
2024/04/02 00:18:46;;;;;;;16.95;3.63;;;;;;;21.11;25.31;94235.31;5008915;28;20128;-77
2024/04/02 00:21:13;;;;;;;22.50;3.50;;;;;;;21.03;25.43;94228.78;5025814;28;20033;-78
2024/04/02 00:23:41;;;;;;;18.50;3.25;;;;;;;20.94;25.80;94224.28;5025016;28;20033;-78
2024/04/02 00:26:09;;;;;;;16.85;3.25;;;;;;;20.86;25.57;94228.16;5027264;28;20510;-77
2024/04/02 00:28:34;;;;;;;16.17;3.00;;;;;;;20.77;25.97;94228.53;5024897;28;20029;-78
2024/04/02 00:31:01;;;;;;;15.40;2.83;;;;;;;20.75;25.92;94242.22;5009482;28;20634;-78
2024/04/02 00:33:29;;;;;;;16.80;3.47;;;;;;;20.64;26.35;94226.31;5025185;28;20029;-76
2024/04/02 00:36:06;;;;;;;19.65;2.70;;;;;;;20.60;25.95;94234.25;5025687;28;20424;-78
2024/04/02 00:38:32;;;;;;;15.93;4.05;;;;;;;20.59;25.94;94224.34;5027197;28;20061;-76
2024/04/02 00:40:57;;;;;;;20.48;3.92;;;;;;;20.57;23.91;94233.22;5024733;28;20035;-77
2024/04/02 00:43:26;;;;;;;15.27;3.35;;;;;;;20.62;25.71;94237.25;5025767;28;20017;-78
2024/04/02 00:45:52;;;;;;;16.08;3.25;;;;;;;20.50;25.99;94219.84;5007989;28;20029;-77
2024/04/02 00:48:18;;;;;;;14.32;3.47;;;;;;;20.54;24.66;94233.53;5025713;28;20616;-77
2024/04/02 00:50:45;;;;;;;18.48;2.97;;;;;;;20.48;25.58;94230.78;5007877;28;20033;-78
2024/04/02 00:53:11;;;;;;;15.90;3.33;;;;;;;20.43;25.95;94223.94;5023501;28;20049;-79
2024/04/02 00:55:40;;;;;;;18.13;3.97;;;;;;;20.39;25.96;94209.47;5025462;28;20534;-78
2024/04/02 00:58:05;;;;;;;15.52;2.58;;;;;;;20.30;26.33;94228.56;5024531;28;20444;-78
2024/04/02 01:00:31;;;;;;;17.58;3.30;;;;;;;20.16;26.23;94208.13;5025917;28;20025;-79
2024/04/02 01:02:57;;;;;;;18.25;3.20;;;;;;;20.20;26.48;94222.56;5024650;28;20498;-78
2024/04/02 01:05:23;;;;;;;19.23;3.90;;;;;;;20.17;25.35;94215.97;5009077;28;20099;-78
2024/04/02 01:07:48;;;;;;;15.98;3.35;;;;;;;20.20;25.26;94217.00;5025686;28;20116;-77
2024/04/02 01:10:14;;;;;;;19.27;3.72;;;;;;;20.16;25.00;94222.06;5026502;28;20038;-77
2024/04/02 01:12:40;;;;;;;16.92;3.72;;;;;;;20.18;24.29;94208.34;5025501;28;20033;-78
2024/04/02 01:15:05;;;;;;;17.77;3.45;;;;;;;20.10;25.04;94229.72;5024489;28;20491;-78
2024/04/02 01:17:30;;;;;;;19.73;3.75;;;;;;;20.19;23.08;94231.47;5026693;28;20030;-76
2024/04/02 01:19:56;;;;;;;15.07;3.65;;;;;;;20.22;23.17;94230.41;5025526;28;20132;-77
2024/04/02 01:22:21;;;;;;;20.42;3.58;;;;;;;20.32;23.17;94212.84;5026647;28;20030;-78
2024/04/02 01:24:57;;;;;;;19.05;4.05;;;;;;;20.42;23.08;94225.22;5024421;28;20025;-78
2024/04/02 01:27:22;;;;;;;18.38;2.78;;;;;;;20.50;22.64;94221.88;5025115;28;20021;-77
2024/04/02 01:29:48;;;;;;;20.50;3.63;;;;;;;20.52;22.72;94206.09;5026395;28;20092;-77
2024/04/02 01:32:13;;;;;;;22.23;3.65;;;;;;;20.55;22.49;94223.88;5024313;28;20512;-78
2024/04/02 01:34:38;;;;;;;25.05;4.30;;;;;;;20.62;22.82;94228.88;5008822;28;20163;-77
2024/04/02 01:37:04;;;;;;;14.30;3.10;;;;;;;20.59;22.95;94219.53;5023884;28;20121;-77
2024/04/02 01:39:29;;;;;;;17.67;3.17;;;;;;;20.68;23.07;94221.97;5026819;28;20494;-78
2024/04/02 01:41:54;;;;;;;17.25;3.72;;;;;;;20.62;22.88;94214.94;5024304;28;20049;-79
2024/04/02 01:44:20;;;;;;;20.05;3.55;;;;;;;20.64;22.93;94215.94;5025049;28;20033;-77
2024/04/02 01:46:45;;;;;;;20.33;3.03;;;;;;;20.63;22.94;94206.03;5024233;28;20031;-78
2024/04/02 01:49:10;;;;;;;11.45;2.40;;;;;;;20.66;23.26;94226.56;5024718;28;20021;-78
2024/04/02 01:51:36;;;;;;;13.73;3.00;;;;;;;20.61;23.36;94211.38;5024910;28;20030;-76
2024/04/02 01:54:01;;;;;;;16.88;2.83;;;;;;;20.65;23.41;94197.16;5025619;28;20542;-76
2024/04/02 01:56:27;;;;;;;20.10;4.35;;;;;;;20.71;22.67;94183.88;5026499;28;20121;-76
2024/04/02 01:58:52;;;;;;;22.10;3.45;;;;;;;20.68;22.66;94163.34;5025466;28;20496;-76
2024/04/02 02:01:17;;;;;;;21.60;2.67;;;;;;;20.74;22.65;94185.63;5026579;28;20029;-77
2024/04/02 02:03:43;;;;;;;18.00;3.53;;;;;;;20.76;22.69;94196.25;5028603;28;20044;-76
2024/04/02 02:06:08;;;;;;;15.43;2.95;;;;;;;20.71;22.66;94158.00;5028296;28;20492;-76
2024/04/02 02:08:33;;;;;;;18.02;3.67;;;;;;;20.71;22.91;94169.16;5029312;28;20139;-78
2024/04/02 02:11:03;;;;;;;24.13;3.30;;;;;;;20.72;22.51;94165.84;5028265;28;20550;-78
2024/04/02 02:13:29;;;;;;;17.55;3.40;;;;;;;20.71;22.30;94158.75;5029672;28;20191;-78
2024/04/02 02:16:00;;;;;;;18.88;3.13;;;;;;;20.78;22.19;94160.22;5010911;28;20577;-78
2024/04/02 02:18:26;;;;;;;22.25;3.50;;;;;;;20.82;21.94;94132.75;5028099;28;20028;-78
2024/04/02 02:20:51;;;;;;;15.85;3.58;;;;;;;20.83;22.36;94137.81;5010917;28;20064;-78
2024/04/02 02:23:16;;;;;;;16.85;2.92;;;;;;;20.83;21.90;94126.63;5030206;28;20053;-75
2024/04/02 02:25:42;;;;;;;13.27;2.50;;;;;;;20.88;21.93;94120.25;5029033;28;20491;-78
2024/04/02 02:28:07;;;;;;;18.27;3.28;;;;;;;20.88;21.85;94139.03;5027795;28;20057;-77
2024/04/02 02:30:32;;;;;;;16.27;2.83;;;;;;;20.94;21.96;94109.75;5011509;28;20022;-77
2024/04/02 02:32:58;;;;;;;17.20;3.17;;;;;;;21.04;21.98;94118.53;5028666;28;20084;-77
2024/04/02 02:35:23;;;;;;;20.27;3.13;;;;;;;20.85;21.89;94129.66;5029286;28;20021;-76
2024/04/02 02:37:48;;;;;;;19.85;3.53;;;;;;;20.98;21.69;94129.00;5028109;28;20041;-77
2024/04/02 02:40:14;;;;;;;17.75;3.28;;;;;;;21.04;21.23;94121.31;5029347;28;20184;-77
2024/04/02 02:42:39;;;;;;;13.98;2.92;;;;;;;21.01;21.20;94110.44;5028710;28;20033;-76
2024/04/02 02:45:05;;;;;;;20.70;3.17;;;;;;;21.06;20.90;94120.81;5011264;28;20101;-78
2024/04/02 02:47:30;;;;;;;13.55;3.22;;;;;;;21.11;21.05;94095.59;5027213;28;20387;-77
2024/04/02 02:49:56;;;;;;;17.45;2.95;;;;;;;21.16;20.93;94094.78;5010495;28;20435;-76
2024/04/02 02:52:21;;;;;;;15.73;3.13;;;;;;;21.17;20.90;94129.06;5028790;28;20110;-78
2024/04/02 02:54:47;;;;;;;19.85;3.05;;;;;;;21.12;20.73;94097.09;5028232;28;20025;-77
2024/04/02 02:57:12;;;;;;;14.38;3.55;;;;;;;21.21;20.46;94104.34;5027456;28;20146;-78
2024/04/02 02:59:37;;;;;;;14.55;3.00;;;;;;;21.24;20.65;94111.69;5026519;28;20022;-77
2024/04/02 03:02:03;;;;;;;24.50;3.42;;;;;;;21.31;20.12;94107.56;5029045;28;20106;-78
2024/04/02 03:04:28;;;;;;;18.75;3.55;;;;;;;21.34;20.79;94115.66;5010035;28;20056;-78
2024/04/02 03:06:54;;;;;;;24.33;3.63;;;;;;;21.35;20.66;94114.38;5027186;28;20027;-78
2024/04/02 03:09:19;;;;;;;12.68;3.22;;;;;;;21.32;20.62;94148.22;5028281;28;20460;-78
2024/04/02 03:11:45;;;;;;;13.75;2.67;;;;;;;21.33;21.01;94122.53;5026432;28;20034;-77
2024/04/02 03:14:10;;;;;;;28.52;3.63;;;;;;;21.28;20.71;94142.16;5027026;28;20052;-77
2024/04/02 03:16:36;;;;;;;19.42;3.17;;;;;;;21.21;21.24;94126.72;5025983;28;20108;-78
2024/04/02 03:19:01;;;;;;;16.83;2.72;;;;;;;21.14;21.33;94138.47;5027116;28;20140;-76
2024/04/02 03:21:26;;;;;;;20.13;2.65;;;;;;;21.13;21.17;94132.16;5027357;28;20495;-76
2024/04/02 03:23:54;;;;;;;16.20;3.10;;;;;;;21.20;21.47;94128.75;5027283;28;20080;-76
2024/04/02 03:26:20;;;;;;;17.55;3.30;;;;;;;21.17;21.27;94124.22;5026699;28;20087;-77
2024/04/02 03:28:46;;;;;;;23.80;2.92;;;;;;;21.06;21.27;94126.41;5028212;28;20025;-78
2024/04/02 03:31:11;;;;;;;23.45;3.65;;;;;;;20.98;21.58;94123.41;5027052;28;20029;-77
2024/04/02 03:33:36;;;;;;;17.83;3.15;;;;;;;21.01;21.84;94135.59;5026490;28;20040;-77
2024/04/02 03:36:04;;;;;;;20.40;4.32;;;;;;;21.02;21.88;94131.50;5027523;28;20458;-77
2024/04/02 03:38:29;;;;;;;27.60;4.05;;;;;;;20.97;21.80;94126.75;5010513;28;20617;-78
2024/04/02 03:40:55;;;;;;;26.85;4.05;;;;;;;20.97;21.65;94144.25;5027452;28;20116;-78
2024/04/02 03:43:20;;;;;;;19.77;3.35;;;;;;;20.87;21.72;94132.69;5026364;28;20035;-78
2024/04/02 03:45:46;;;;;;;23.10;3.50;;;;;;;20.89;21.78;94146.13;5027962;28;20095;-77
2024/04/02 03:48:11;;;;;;;19.63;2.72;;;;;;;20.81;21.96;94126.38;5026427;28;20053;-79
2024/04/02 03:50:37;;;;;;;13.85;2.58;;;;;;;20.81;21.90;94148.72;5026229;28;20029;-77
2024/04/02 03:53:03;;;;;;;26.73;4.38;;;;;;;20.83;21.92;94140.59;5027208;28;20026;-78
2024/04/02 03:55:35;;;;;;;28.30;4.80;;;;;;;20.82;22.48;94164.22;5025277;28;20033;-78
2024/04/02 03:58:02;;;;;;;21.00;4.25;;;;;;;20.81;22.11;94185.03;5026970;28;20337;-77
2024/04/02 04:00:28;;;;;;;30.38;4.22;;;;;;;20.76;22.51;94157.94;5009206;28;20021;-77
2024/04/02 04:02:55;;;;;;;15.05;2.78;;;;;;;20.70;22.48;94154.41;5028047;28;20037;-77
2024/04/02 04:05:20;;;;;;;24.77;3.90;;;;;;;20.70;22.39;94143.25;5027492;28;20070;-76
2024/04/02 04:07:46;;;;;;;20.58;3.25;;;;;;;20.64;22.61;94160.09;5025596;28;20029;-77
2024/04/02 04:10:12;;;;;;;16.23;3.40;;;;;;;20.71;22.37;94202.69;5027616;28;20025;-78
2024/04/02 04:12:37;;;;;;;14.30;2.90;;;;;;;20.69;22.35;94194.81;5025359;28;20191;-76
2024/04/02 04:15:03;;;;;;;11.45;3.08;;;;;;;20.69;22.12;94161.28;5026558;28;20032;-77
2024/04/02 04:17:29;;;;;;;17.25;3.17;;;;;;;20.66;22.32;94170.72;5026433;28;20052;-78
2024/04/02 04:19:54;;;;;;;16.38;2.95;;;;;;;20.71;21.94;94185.94;5026438;28;20514;-78
2024/04/02 04:22:20;;;;;;;16.35;4.32;;;;;;;20.69;22.46;94170.44;5025244;28;20029;-78
2024/04/02 04:24:45;;;;;;;27.42;4.40;;;;;;;20.63;22.51;94192.06;5026921;28;20032;-78
2024/04/02 04:27:10;;;;;;;18.95;3.72;;;;;;;20.64;22.86;94192.81;5027542;28;20029;-78
2024/04/02 04:29:36;;;;;;;11.07;2.53;;;;;;;20.61;22.87;94196.66;5025075;28;20037;-78
2024/04/02 04:32:01;;;;;;;18.83;3.72;;;;;;;20.49;22.92;94201.59;5027908;28;20601;-78
2024/04/02 04:34:27;;;;;;;17.45;3.17;;;;;;;20.48;23.20;94191.69;5024667;28;20436;-78
2024/04/02 04:36:52;;;;;;;21.27;3.13;;;;;;;20.38;22.97;94204.44;5027446;28;20093;-77
2024/04/02 04:39:17;;;;;;;20.10;4.65;;;;;;;20.37;23.43;94200.88;5008518;28;20502;-78
2024/04/02 04:41:43;;;;;;;13.38;2.95;;;;;;;20.29;22.97;94199.91;5027223;28;20109;-78
2024/04/02 04:44:08;;;;;;;13.30;2.78;;;;;;;20.22;23.19;94192.09;5026995;28;20137;-78
2024/04/02 04:46:33;;;;;;;18.98;3.20;;;;;;;20.20;23.35;94207.84;5008370;28;20029;-77
2024/04/02 04:48:59;;;;;;;17.25;4.25;;;;;;;20.12;23.36;94197.22;5025531;28;20063;-78
2024/04/02 04:51:24;;;;;;;19.08;3.63;;;;;;;20.06;23.42;94198.53;5008149;28;20411;-77
2024/04/02 04:53:49;;;;;;;17.88;3.53;;;;;;;20.08;23.67;94202.34;5027622;28;20025;-78
2024/04/02 04:56:15;;;;;;;14.13;2.88;;;;;;;20.12;23.80;94205.59;5026029;28;20044;-77
2024/04/02 04:58:40;;;;;;;20.90;4.93;;;;;;;20.07;23.66;94197.28;5025895;28;20407;-77
2024/04/02 05:01:06;;;;;;;15.52;3.22;;;;;;;20.10;23.83;94218.56;5026342;28;20037;-77
2024/04/02 05:03:32;;;;;;;22.27;3.30;;;;;;;20.15;23.90;94215.75;5025326;28;20025;-77
2024/04/02 05:06:08;;;;;;;21.90;2.97;;;;;;;20.17;23.64;94224.34;5025656;28;20063;-77
2024/04/02 05:08:35;;;;;;;17.30;3.08;;;;;;;20.11;23.75;94206.88;5008078;28;20315;-77
2024/04/02 05:11:02;;;;;;;18.98;3.20;;;;;;;20.12;23.91;94219.56;5026086;28;20076;-77
2024/04/02 05:13:29;;;;;;;22.42;3.17;;;;;;;20.15;23.69;94215.00;5024281;28;20034;-77
2024/04/02 05:15:55;;;;;;;20.27;2.75;;;;;;;20.22;24.12;94233.97;5009216;28;20036;-77
2024/04/02 05:18:20;;;;;;;18.67;2.97;;;;;;;20.10;24.33;94240.88;5024551;28;20021;-77
2024/04/02 05:20:46;;;;;;;21.17;4.28;;;;;;;20.10;24.20;94226.94;5025548;28;20025;-78
2024/04/02 05:23:13;;;;;;;19.63;3.60;;;;;;;20.14;24.31;94230.22;5025311;28;20108;-77
2024/04/02 05:25:38;;;;;;;18.38;3.30;;;;;;;20.14;24.25;94230.97;5024478;28;20502;-78
2024/04/02 05:28:04;;;;;;;23.02;3.40;;;;;;;20.21;24.16;94235.25;5025453;28;20017;-78
2024/04/02 05:30:30;;;;;;;18.77;3.80;;;;;;;20.24;24.48;94236.22;5025518;28;20045;-76
2024/04/02 05:32:55;;;;;;;21.27;3.90;;;;;;;20.28;24.30;94245.09;5025558;28;20025;-77
2024/04/02 05:35:21;;;;;;;12.40;2.92;;;;;;;20.24;24.53;94250.19;5007763;28;20544;-77
2024/04/02 05:37:51;;;;;;;16.77;2.95;;;;;;;20.16;24.58;94247.19;5026986;28;20041;-76
2024/04/02 05:40:17;;;;;;;14.68;3.53;;;;;;;20.20;24.39;94250.47;5028914;28;20087;-78
2024/04/02 05:42:43;;;;;;;25.45;4.38;;;;;;;20.23;24.49;94266.16;5028423;28;20025;-77
2024/04/02 05:45:09;;;;;;;15.23;3.13;;;;;;;20.33;24.93;94264.59;5030291;28;20021;-76
2024/04/02 05:47:34;;;;;;;16.63;3.67;;;;;;;20.23;25.11;94260.59;5029231;28;20103;-77
2024/04/02 05:49:59;;;;;;;20.30;3.55;;;;;;;20.32;24.78;94262.31;5030599;28;20514;-75
2024/04/02 05:52:25;;;;;;;15.48;3.08;;;;;;;20.37;24.87;94256.69;5027791;28;20028;-77
2024/04/02 05:54:50;;;;;;;14.05;3.05;;;;;;;20.30;24.85;94257.25;5028977;28;20365;-77
2024/04/02 05:57:16;;;;;;;22.50;3.40;;;;;;;20.39;25.17;94267.34;5011569;28;20031;-78
2024/04/02 05:59:42;;;;;;;24.85;4.25;;;;;;;20.42;24.83;94264.28;5029972;28;20025;-79
2024/04/02 06:02:08;;;;;;;20.50;4.18;;;;;;;20.48;24.92;94266.31;5028644;28;20064;-77
2024/04/02 06:04:33;;;;;;;19.13;4.35;;;;;;;20.51;24.94;94265.25;5027623;28;20053;-76
2024/04/02 06:06:58;;;;;;;18.83;3.65;;;;;;;20.60;25.27;94278.91;5031851;28;20567;-77
2024/04/02 06:09:24;;;;;;;22.02;3.30;;;;;;;20.56;25.14;94278.44;5034798;28;20175;-75
2024/04/02 06:11:49;;;;;;;17.88;2.80;;;;;;;20.55;25.17;94286.06;5013500;28;20465;-76
2024/04/02 06:14:14;;;;;;;14.30;3.53;;;;;;;20.57;25.07;94296.69;5028717;28;20037;-77
2024/04/02 06:16:40;;;;;;;18.20;4.40;;;;;;;20.61;25.06;94291.59;5027686;28;20085;-77
2024/04/02 06:19:06;;;;;;;20.58;4.82;;;;;;;20.70;25.10;94299.63;5027399;28;20029;-77
2024/04/02 06:21:32;;;;;;;18.60;3.33;;;;;;;20.74;25.08;94296.56;5027815;28;20028;-76
2024/04/02 06:23:57;;;;;;;19.63;3.85;;;;;;;20.74;25.21;94308.50;5028015;28;20116;-76
2024/04/02 06:26:22;;;;;;;18.25;3.50;;;;;;;20.82;25.07;94312.28;5027280;28;20025;-76
2024/04/02 06:28:48;;;;;;;18.00;2.92;;;;;;;20.77;25.25;94293.50;5012147;28;20041;-77
2024/04/02 06:31:13;;;;;;;18.52;4.32;;;;;;;20.78;24.82;94316.63;5010595;28;20105;-78
2024/04/02 06:33:39;;;;;;;14.20;3.97;;;;;;;20.81;24.86;94329.53;5028117;28;20507;-78
2024/04/02 06:36:04;;;;;;;23.67;4.72;;;;;;;20.82;24.78;94334.63;5027403;28;20034;-76
2024/04/02 06:38:30;;;;;;;20.70;4.72;;;;;;;20.81;26.41;94338.66;5027276;28;20054;-78
2024/04/02 06:40:55;;;;;;;20.30;4.55;;;;;;;20.83;27.33;94341.72;5027768;28;20033;-77
2024/04/02 06:43:21;;;;;;;13.07;4.03;;;;;;;20.93;28.10;94356.88;5027152;28;20476;-77
2024/04/02 06:45:56;;;;;;;18.25;4.70;;;;;;;20.91;28.80;94358.66;5027691;28;20030;-76
2024/04/02 06:48:22;;;;;;;20.90;4.47;;;;;;;20.91;28.86;94362.22;5009532;28;20033;-75
2024/04/02 06:50:57;;;;;;;21.27;4.80;;;;;;;20.97;29.55;94358.63;5027764;28;20029;-77
2024/04/02 06:53:24;;;;;;;17.02;4.18;;;;;;;20.91;30.03;94362.22;5026875;28;20079;-77
2024/04/02 06:55:50;;;;;;;19.48;5.13;;;;;;;20.83;30.40;94366.09;5027467;28;20037;-76
2024/04/02 06:58:15;;;;;;;19.42;4.40;;;;;;;20.85;30.44;94361.50;5027089;28;20582;-77
2024/04/02 07:00:44;;;;;;;23.15;6.88;;;;;;;20.91;30.95;94365.00;5028397;28;20074;-76
2024/04/02 07:03:16;;;;;;;20.63;3.88;;;;;;;20.96;30.86;94369.03;5029045;28;20117;-76
2024/04/02 07:05:43;;;;;;;14.57;3.55;;;;;;;20.88;31.53;94379.28;5027595;28;20403;-76
2024/04/02 07:08:09;;;;;;;19.48;3.80;;;;;;;20.93;31.29;94375.66;5011075;28;20128;-75
2024/04/02 07:10:34;;;;;;;15.73;3.95;;;;;;;20.98;31.57;94377.66;5009933;28;20124;-76
2024/04/02 07:12:59;;;;;;;15.05;4.35;;;;;;;20.97;31.60;94373.34;5027294;28;20049;-76
2024/04/02 07:15:25;;;;;;;15.65;4.05;;;;;;;20.97;31.96;94387.31;5028086;28;20021;-77
2024/04/02 07:17:50;;;;;;;23.67;4.80;;;;;;;20.96;32.06;94380.22;5028246;28;20082;-77
2024/04/02 07:20:16;;;;;;;18.35;4.30;;;;;;;20.95;32.25;94382.25;5010473;28;20075;-77
2024/04/02 07:22:41;;;;;;;16.00;5.05;;;;;;;20.98;32.79;94382.47;5010580;28;20575;-76
2024/04/02 07:25:06;;;;;;;22.40;4.45;;;;;;;21.02;32.58;94383.72;5043252;28;20032;-77
2024/04/02 07:27:33;;;;;;;33.90;5.15;;;;;;;21.07;32.35;94382.19;5026540;28;20155;-77
2024/04/02 07:29:59;;;;;;;26.02;4.53;;;;;;;21.13;32.18;94378.06;5026980;28;20021;-77
2024/04/02 07:32:24;;;;;;;29.20;5.28;;;;;;;21.21;32.22;94373.41;5026144;28;20147;-77
2024/04/02 07:34:50;;;;;;;21.67;4.43;;;;;;;21.19;32.17;94375.22;5026227;28;20040;-78
2024/04/02 07:37:15;;;;;;;17.33;4.07;;;;;;;21.27;32.32;94369.81;5026543;28;20042;-77
2024/04/02 07:39:40;;;;;;;26.30;5.10;;;;;;;21.35;31.82;94376.41;5026070;28;20526;-77
2024/04/02 07:42:06;;;;;;;14.77;4.50;;;;;;;21.33;31.56;94360.13;5010185;28;20121;-78
2024/04/02 07:44:31;;;;;;;22.98;5.00;;;;;;;21.37;31.94;94379.41;5025762;28;20021;-76
2024/04/02 07:46:57;;;;;;;17.42;5.13;;;;;;;21.49;31.75;94386.44;5028283;28;20024;-76
2024/04/02 07:49:22;;;;;;;25.40;5.00;;;;;;;21.44;31.62;94382.41;5009606;28;20037;-77
2024/04/02 07:51:48;;;;;;;22.88;5.88;;;;;;;21.47;31.61;94375.78;5026506;28;20029;-76
2024/04/02 07:54:14;;;;;;;21.02;5.63;;;;;;;21.45;31.61;94388.78;5026021;28;20033;-76
2024/04/02 07:56:40;;;;;;;18.02;6.53;;;;;;;21.34;31.69;94384.03;5009154;28;20033;-76
2024/04/02 07:59:05;;;;;;;25.77;7.32;;;;;;;21.37;31.60;94380.19;5026012;28;20108;-76
2024/04/02 08:01:30;;;;;;;22.85;7.13;;;;;;;21.41;31.48;94352.69;5025168;28;20026;-75
2024/04/02 08:03:56;;;;;;;26.77;7.25;;;;;;;21.54;31.34;94362.50;5028361;28;20033;-76
2024/04/02 08:06:21;;;;;;;24.23;6.78;;;;;;;21.66;31.47;94372.28;5025601;28;20064;-76
2024/04/02 08:08:49;;;;;;;22.95;6.80;;;;;;;21.62;29.87;94372.59;5009585;28;20425;-76
2024/04/02 08:11:14;;;;;;;17.58;4.32;;;;;;;21.31;30.12;94351.50;5025845;28;20078;-78
2024/04/02 08:13:39;;;;;;;18.25;5.22;;;;;;;21.36;30.05;94361.91;5025821;28;20037;-76
2024/04/02 08:16:05;;;;;;;22.85;4.47;;;;;;;20.89;30.77;94373.16;5009553;28;20041;-77
2024/04/02 08:18:30;;;;;;;19.17;4.22;;;;;;;20.92;29.80;94346.97;5008826;28;20462;-76
2024/04/02 08:20:56;;;;;;;21.73;4.03;;;;;;;20.97;29.76;94353.03;5026183;28;20072;-77
2024/04/02 08:23:21;;;;;;;19.20;3.38;;;;;;;21.09;27.90;94344.03;5025416;28;20034;-76
2024/04/02 08:25:47;;;;;;;18.48;3.42;;;;;;;21.43;28.13;94361.31;5027331;28;20053;-76
2024/04/02 08:28:12;;;;;;;22.88;4.68;;;;;;;21.62;27.69;94371.81;5023503;28;20154;-79
2024/04/02 08:30:37;;;;;;;14.90;2.28;;;;;;;21.74;25.37;94374.00;5026529;28;20026;-77
2024/04/02 08:33:03;;;;;;;14.90;3.22;;;;;;;21.89;24.96;94372.81;5008908;28;20037;-77
2024/04/02 08:35:28;;;;;;;19.73;3.15;;;;;;;21.86;23.98;94354.31;5024413;28;20112;-76
2024/04/02 08:37:54;;;;;;;11.20;2.17;;;;;;;22.11;23.23;94388.66;5025986;28;20041;-77
2024/04/02 08:40:21;;;;;;;14.77;2.95;;;;;;;22.30;23.33;94385.88;5040356;28;20037;-77
2024/04/02 08:42:48;;;;;;;10.75;2.70;;;;;;;22.51;23.05;94353.28;5026066;28;20057;-77
2024/04/02 08:45:16;;;;;;;16.58;2.97;;;;;;;22.81;21.72;94364.31;5008660;28;20029;-77
2024/04/02 08:47:42;;;;;;;11.55;1.80;;;;;;;23.07;19.55;94382.59;5008005;28;20471;-76
2024/04/02 08:50:09;;;;;;;9.23;1.77;;;;;;;23.16;20.32;94374.53;5025318;28;20032;-77
2024/04/02 08:52:35;;;;;;;9.25;2.20;;;;;;;23.43;20.11;94371.81;5025281;28;20034;-76
2024/04/02 08:55:01;;;;;;;9.48;2.03;;;;;;;23.72;20.06;94348.38;5008941;28;20447;-76
2024/04/02 08:57:27;;;;;;;9.50;2.42;;;;;;;24.08;19.48;94364.78;5008447;28;20164;-78
2024/04/02 08:59:54;;;;;;;9.00;2.35;;;;;;;24.33;18.57;94362.53;5025886;28;20116;-76
2024/04/02 09:02:20;;;;;;;8.73;2.00;;;;;;;24.48;16.75;94365.53;5024971;28;20025;-76
2024/04/02 09:04:47;;;;;;;11.93;2.00;;;;;;;24.72;16.01;94370.16;5025600;28;20388;-75
2024/04/02 09:07:12;;;;;;;14.00;2.30;;;;;;;24.89;16.82;94386.66;5024674;28;20038;-77
2024/04/02 09:09:41;;;;;;;14.68;2.65;;;;;;;24.93;17.45;94383.50;5008454;28;20033;-76
2024/04/02 09:12:06;;;;;;;13.20;3.05;;;;;;;25.09;17.24;94359.91;5011194;28;20682;-77
2024/04/02 09:14:33;;;;;;;20.08;3.05;;;;;;;24.97;15.25;94362.19;5012118;28;20029;-77
2024/04/02 09:16:58;;;;;;;8.50;1.80;;;;;;;25.23;14.99;94378.22;5013077;28;20021;-77
2024/04/02 09:19:25;;;;;;;8.00;1.60;;;;;;;25.22;15.19;94376.72;5028468;28;20053;-77
2024/04/02 09:21:51;;;;;;;11.57;2.05;;;;;;;25.36;15.09;94380.25;5013168;28;20033;-77
2024/04/02 09:24:16;;;;;;;8.95;2.35;;;;;;;25.61;15.02;94380.66;5028934;28;20447;-77
2024/04/02 09:26:41;;;;;;;9.13;2.25;;;;;;;25.55;14.99;94371.59;5028998;28;20025;-76
2024/04/02 09:29:07;;;;;;;7.25;1.90;;;;;;;25.54;14.72;94379.28;5028703;28;20108;-77
2024/04/02 09:31:33;;;;;;;8.00;2.03;;;;;;;25.59;15.09;94394.53;5028955;28;20025;-76
2024/04/02 09:34:08;;;;;;;6.65;1.63;;;;;;;25.66;14.71;94394.59;5030807;28;20514;-78
2024/04/02 09:37:38;;;;;;;8.02;1.63;;;;;;;25.63;14.66;94397.72;5028470;28;20036;-76
2024/04/02 09:40:03;;;;;;;10.23;1.73;;;;;;;25.76;14.29;94399.75;4988163;28;20108;-79
2024/04/02 09:42:33;;;;;;;7.47;1.85;;;;;;;25.51;14.94;94411.31;4988056;28;20588;-77
2024/04/02 09:44:59;;;;;;;9.63;1.38;;;;;;;25.68;16.62;94413.72;4971705;28;20026;-77
2024/04/02 09:47:25;;;;;;;3.20;1.00;;;;;;;25.41;17.89;94399.81;4956276;28;20545;-78
2024/04/02 09:49:52;;;;;;;10.35;1.35;;;;;;;25.29;18.16;94407.00;4971294;28;20030;-76
2024/04/02 09:52:18;;;;;;;6.53;1.98;;;;;;;25.18;17.76;94381.19;4972353;28;20039;-79
2024/04/02 09:54:45;;;;;;;6.95;1.00;;;;;;;24.53;18.09;94389.22;4971455;28;20078;-79
2024/04/02 09:57:12;;;;;;;8.50;1.45;;;;;;;24.71;18.27;94388.31;4984921;28;20085;-80
2024/04/02 09:59:38;;;;;;;15.80;2.35;;;;;;;24.60;17.75;94382.94;4974790;28;20073;-78
2024/04/02 10:02:06;;;;;;;21.98;1.67;;;;;;;24.33;17.79;94368.91;4971781;28;20117;-81
2024/04/02 10:04:33;;;;;;;8.10;1.10;;;;;;;24.19;18.06;94375.81;4972334;28;20480;-84
2024/04/02 10:07:00;;;;;;;9.13;1.50;;;;;;;24.28;18.11;94374.63;4987348;28;20215;-87
2024/04/02 10:09:25;;;;;;;7.47;1.88;;;;;;;24.03;18.89;94388.91;4988970;28;20441;-82
2024/04/02 10:11:51;;;;;;;6.82;2.00;;;;;;;24.36;18.08;94381.88;4987403;28;20033;-80
2024/04/02 10:14:16;;;;;;;4.93;1.80;;;;;;;24.82;16.67;94376.81;5004528;28;20038;-84
2024/04/02 10:16:47;;;;;;;5.95;2.15;;;;;;;25.02;16.26;94397.88;5030207;28;20235;-85
2024/04/02 10:19:19;;;;;;;7.03;2.05;;;;;;;25.21;15.47;94377.28;5028339;28;20037;-82
2024/04/02 10:21:45;;;;;;;6.63;1.92;;;;;;;25.57;15.47;94375.34;5028925;28;20021;-82
2024/04/02 10:24:15;;;;;;;6.35;2.33;;;;;;;25.97;15.29;94380.00;5029067;28;20116;-87
2024/04/02 10:26:41;;;;;;;5.07;1.70;;;;;;;26.42;14.60;94377.50;5030616;28;20036;-87
2024/04/02 10:29:06;;;;;;;7.72;2.05;;;;;;;27.07;14.25;94385.91;5029520;28;20022;-85
2024/04/02 10:31:42;;;;;;;6.40;1.38;;;;;;;27.52;12.94;94370.34;5013275;28;20123;-84
2024/04/02 10:34:11;;;;;;;8.23;1.10;;;;;;;28.19;11.82;94364.53;5030018;28;20032;-83
2024/04/02 10:36:38;;;;;;;7.60;2.08;;;;;;;28.62;11.33;94371.22;5012526;28;20138;-85
2024/04/02 10:39:09;;;;;;;6.03;1.45;;;;;;;29.11;11.02;94367.84;5012644;28;20045;-81
2024/04/02 10:41:36;;;;;;;11.23;1.92;;;;;;;29.30;10.10;94358.84;5011250;28;20132;-78
2024/04/02 10:44:02;;;;;;;11.02;1.73;;;;;;;30.07;10.70;94379.66;5028113;28;20033;-79
2024/04/02 10:46:28;;;;;;;6.18;2.20;;;;;;;30.59;10.95;94368.38;5027073;28;20507;-81
2024/04/02 10:49:01;;;;;;;6.28;2.30;;;;;;;31.44;10.56;94382.31;5030761;28;20057;-87
2024/04/02 10:51:27;;;;;;;8.43;2.40;;;;;;;31.53;10.57;94366.66;5015091;28;20033;-84
2024/04/02 10:53:54;;;;;;;4.75;1.80;;;;;;;31.18;10.27;94361.81;5028395;28;20171;-84
2024/04/02 10:56:23;;;;;;;4.60;1.55;;;;;;;31.07;10.14;94375.78;5013415;28;20035;-84
2024/04/02 10:58:53;;;;;;;6.47;1.58;;;;;;;31.14;9.63;94372.88;5032655;28;20021;-84
2024/04/02 11:01:19;;;;;;;3.05;1.40;;;;;;;30.23;10.29;94373.88;5030587;28;20029;-81
2024/04/02 11:03:45;;;;;;;5.97;1.58;;;;;;;30.70;10.13;94364.31;5011419;28;20455;-84
2024/04/02 11:06:10;;;;;;;10.52;1.73;;;;;;;31.23;9.74;94359.31;5029010;28;20034;-85
2024/04/02 11:08:37;;;;;;;4.70;1.50;;;;;;;32.22;9.18;94374.84;5012582;28;20036;-84
2024/04/02 11:11:06;;;;;;;5.47;1.40;;;;;;;32.55;9.00;94374.50;5029315;28;20084;-88
2024/04/02 11:13:32;;;;;;;5.00;1.35;;;;;;;32.93;9.28;94366.00;5047756;28;20033;-85
2024/04/02 11:15:57;;;;;;;7.38;1.70;;;;;;;33.76;8.51;94365.50;5021741;28;20057;-84
2024/04/02 11:18:24;;;;;;;5.55;1.60;;;;;;;34.17;8.45;94376.16;5030091;28;20029;-87
2024/04/02 11:20:56;;;;;;;2.85;1.38;;;;;;;33.97;8.37;94393.38;5027933;28;20072;-86
2024/04/02 11:26:14;;;;;;;9.48;1.95;;;;;;;33.33;9.32;94353.19;5030354;28;20144;-87